Time;durP1;ratioP1;P1;durP2;ratioP2;P2;SDS_P1;SDS_P2;PMS_P1;PMS_P2;Temp;Humidity;BMP_temperature;BMP_pressure;BME280_temperature;BME280_humidity;BME280_pressure;Samples;Min_cycle;Max_cycle;Signal;HPM_P1;HPM_P2
2023/12/08 00:00:14;;;;;;;4.75;4.32;;;;;;;;;;5044649;28;20227;-79
2023/12/08 00:02:41;;;;;;;3.90;3.60;;;;;;;;;;5042298;28;20250;-79
2023/12/08 00:05:09;;;;;;;5.78;4.32;;;1.30;96.70;;;;;;5039170;28;20238;-79
2023/12/08 00:07:36;;;;;;;4.50;3.63;;;;;;;;;;5042869;28;20209;-79
2023/12/08 00:10:03;;;;;;;5.68;4.43;;;;;;;;;;5043697;28;20692;-79
2023/12/08 00:12:32;;;;;;;6.25;3.83;;;;;;;;;;5043981;28;20703;-79
2023/12/08 00:14:59;;;;;;;4.05;3.75;;;;;;;;;;5042650;28;20202;-79
2023/12/08 00:17:27;;;;;;;10.70;5.53;;;;;;;;;;5038761;28;20667;-79
2023/12/08 00:19:54;;;;;;;9.52;5.15;;;;;;;;;;5041259;28;20227;-78
2023/12/08 00:22:21;;;;;;;5.75;4.68;;;;;;;;;;5040537;28;20206;-78
2023/12/08 00:24:49;;;;;;;6.45;4.88;;;;;;;;;;5042218;28;20565;-78
2023/12/08 00:27:16;;;;;;;3.60;3.30;;;;;;;;;;5042126;28;20206;-78
2023/12/08 00:29:44;;;;;;;7.18;3.88;;;1.50;97.10;;;;;;5045099;28;20570;-80
2023/12/08 00:32:11;;;;;;;3.90;3.50;;;;;;;;;;5039406;28;20212;-79
2023/12/08 00:34:38;;;;;;;3.85;3.13;;;;;;;;;;5041796;28;20234;-79
2023/12/08 00:37:05;;;;;;;6.40;4.05;;;1.50;97.30;;;;;;5040404;28;20251;-79
2023/12/08 00:39:32;;;;;;;7.03;4.47;;;1.40;99.90;;;;;;5041987;28;20200;-79
2023/12/08 00:41:59;;;;;;;9.63;5.10;;;0.90;99.50;;;;;;5045745;28;20208;-80
2023/12/08 00:44:26;;;;;;;7.97;5.07;;;;;;;;;;5035997;28;20197;-79
2023/12/08 00:46:54;;;;;;;8.50;6.05;;;;;;;;;;5044272;28;20240;-79
2023/12/08 00:49:20;;;;;;;6.03;3.80;;;;;;;;;;5036256;28;20214;-79
2023/12/08 00:51:48;;;;;;;5.45;3.85;;;;;;;;;;5044565;28;20708;-79
2023/12/08 00:54:15;;;;;;;7.32;3.50;;;;;;;;;;5052439;28;20203;-79
2023/12/08 00:56:42;;;;;;;5.70;2.95;;;;;;;;;;5041903;28;20219;-79
2023/12/08 00:59:09;;;;;;;3.25;2.92;;;1.30;95.80;;;;;;5042545;28;20292;-78
2023/12/08 01:01:37;;;;;;;6.93;3.42;;;;;;;;;;5043407;28;20203;-79
2023/12/08 01:04:05;;;;;;;6.20;3.35;;;1.00;95.60;;;;;;5045064;28;20207;-79
2023/12/08 01:06:32;;;;;;;6.18;3.38;;;;;;;;;;5044194;28;20224;-79
2023/12/08 01:08:59;;;;;;;5.28;4.38;;;;;;;;;;5041528;28;20211;-79
2023/12/08 01:11:26;;;;;;;3.45;2.67;;;;;;;;;;5043001;28;20235;-79
2023/12/08 01:13:53;;;;;;;6.20;2.67;;;2.20;99.90;;;;;;5048812;28;20197;-79
2023/12/08 01:16:20;;;;;;;5.45;2.63;;;1.70;99.90;;;;;;5047016;28;20514;-79
2023/12/08 01:18:46;;;;;;;4.38;2.42;;;1.70;99.90;;;;;;5048612;28;20207;-79
2023/12/08 01:21:15;;;;;;;4.00;2.95;;;1.70;96.60;;;;;;5046164;28;20208;-79
2023/12/08 01:23:41;;;;;;;3.10;2.58;;;1.60;99.90;;;;;;5043420;28;20200;-79
2023/12/08 01:26:09;;;;;;;4.72;3.20;;;2.80;96.00;;;;;;5046202;28;20577;-79
2023/12/08 01:28:37;;;;;;;5.90;3.13;;;;;;;;;;5048090;28;20204;-79
2023/12/08 01:31:04;;;;;;;3.50;2.75;;;1.60;99.90;;;;;;5048210;28;20207;-80
2023/12/08 01:33:31;;;;;;;6.15;3.30;;;;;;;;;;5048123;28;20200;-79
2023/12/08 01:35:57;;;;;;;1.83;1.52;;;1.40;99.90;;;;;;5048293;28;20246;-79
2023/12/08 01:38:26;;;;;;;4.18;2.42;;;1.70;96.80;;;;;;5048327;28;20566;-79
2023/12/08 01:40:53;;;;;;;2.85;2.08;;;;;;;;;;5046777;28;20226;-79
2023/12/08 01:43:20;;;;;;;6.13;3.13;;;;;;;;;;5046459;28;20205;-79
2023/12/08 01:45:47;;;;;;;3.92;3.13;;;;;;;;;;5043917;28;20285;-79
2023/12/08 01:48:14;;;;;;;2.88;2.30;;;;;;;;;;5046452;28;20753;-79
2023/12/08 01:50:41;;;;;;;4.45;2.70;;;1.80;99.90;;;;;;5042698;28;20196;-79
2023/12/08 01:53:08;;;;;;;2.17;2.03;;;1.80;99.90;;;;;;5046883;28;20646;-78
2023/12/08 01:55:37;;;;;;;4.53;2.78;;;;;;;;;;5043802;28;20197;-79
2023/12/08 01:58:04;;;;;;;3.17;2.58;;;1.90;95.60;;;;;;5044897;28;20200;-80
2023/12/08 02:00:31;;;;;;;4.45;3.42;;;1.90;94.90;;;;;;5046897;28;20204;-79
2023/12/08 02:02:59;;;;;;;4.63;3.15;;;1.90;99.90;;;;;;5047869;28;20197;-79
2023/12/08 02:05:27;;;;;;;2.63;2.40;;;;;;;;;;5046077;28;20226;-80
2023/12/08 02:07:55;;;;;;;2.10;2.00;;;1.80;99.90;;;;;;5046913;28;20196;-79
2023/12/08 02:10:22;;;;;;;3.67;3.15;;;1.30;97.00;;;;;;5045437;28;20339;-79
2023/12/08 02:12:50;;;;;;;3.35;2.55;;;1.90;99.90;;;;;;5047808;28;20196;-79
2023/12/08 02:15:17;;;;;;;3.50;2.60;;;;;;;;;;5046740;28;20400;-79
2023/12/08 02:17:47;;;;;;;3.33;3.05;;;1.70;99.90;;;;;;5047485;28;20540;-80
2023/12/08 02:20:17;;;;;;;4.47;2.75;;;;;;;;;;5046546;28;20227;-79
2023/12/08 02:22:45;;;;;;;3.20;2.88;;;;;;;;;;5047465;28;20209;-79
2023/12/08 02:25:14;;;;;;;3.72;3.42;;;1.60;96.20;;;;;;5046240;28;20236;-79
2023/12/08 02:27:42;;;;;;;2.28;2.05;;;0.50;95.10;;;;;;5047570;28;20282;-79
2023/12/08 02:30:10;;;;;;;3.00;2.10;;;2.00;99.90;;;;;;5045118;28;20203;-78
2023/12/08 02:32:42;;;;;;;4.15;3.20;;;1.90;97.70;;;;;;5042363;28;20389;-79
2023/12/08 02:35:13;;;;;;;4.13;3.85;;;1.90;96.40;;;;;;5041464;28;20279;-79
2023/12/08 02:37:45;;;;;;;3.90;3.60;;;1.90;99.90;;;;;;5043146;28;20680;-79
2023/12/08 02:40:14;;;;;;;2.83;2.28;;;1.90;99.90;;;;;;5045783;28;20208;-79
2023/12/08 02:42:42;;;;;;;3.40;2.88;;;;;;;;;;5046640;28;20193;-79
2023/12/08 02:45:10;;;;;;;7.72;3.20;;;1.90;95.60;;;;;;5035564;28;20235;-79
2023/12/08 02:47:37;;;;;;;4.13;2.95;;;1.80;98.90;;;;;;5040941;28;20693;-79
2023/12/08 02:50:05;;;;;;;4.95;3.63;;;1.90;95.90;;;;;;5039556;28;20196;-80
2023/12/08 02:52:33;;;;;;;2.83;2.03;;;;;;;;;;5040665;28;20212;-80
2023/12/08 02:55:00;;;;;;;4.20;3.10;;;;;;;;;;5048387;28;20670;-80
2023/12/08 02:57:28;;;;;;;6.03;3.15;;;2.00;96.20;;;;;;5042875;28;20266;-80
2023/12/08 02:59:55;;;;;;;3.40;3.13;;;;;;;;;;5042372;28;20316;-80
2023/12/08 03:02:22;;;;;;;2.42;2.22;;;;;;;;;;5045946;28;20219;-80
2023/12/08 03:04:49;;;;;;;1.98;1.85;;;;;;;;;;5045404;28;20196;-80
2023/12/08 03:07:16;;;;;;;3.05;2.70;;;;;;;;;;5044976;28;20232;-79
2023/12/08 03:09:43;;;;;;;2.83;2.10;;;2.00;99.90;;;;;;5046596;28;20224;-80
2023/12/08 03:12:12;;;;;;;3.13;1.60;;;2.00;97.20;;;;;;5043194;28;20200;-81
2023/12/08 03:14:40;;;;;;;3.30;2.53;;;2.00;96.90;;;;;;5042223;28;20212;-79
2023/12/08 03:17:07;;;;;;;2.47;1.90;;;;;;;;;;5045455;28;20657;-80
2023/12/08 03:19:34;;;;;;;2.85;2.10;;;;;;;;;;5045546;28;20206;-80
2023/12/08 03:22:01;;;;;;;1.85;1.75;;;;;;;;;;5040516;28;20208;-79
2023/12/08 03:24:28;;;;;;;4.15;2.15;;;;;;;;;;5042726;28;20632;-80
2023/12/08 03:26:55;;;;;;;4.60;3.40;;;;;;;;;;5040846;28;20223;-79
2023/12/08 03:29:23;;;;;;;5.40;3.65;;;;;;;;;;5040021;28;20200;-80
2023/12/08 03:31:51;;;;;;;1.55;1.45;;;2.10;94.80;;;;;;5045223;28;20631;-80
2023/12/08 03:34:18;;;;;;;3.03;2.83;;;;;;;;;;5035910;28;20444;-80
2023/12/08 03:36:45;;;;;;;1.58;1.48;;;2.20;95.50;;;;;;5043383;28;20196;-80
2023/12/08 03:39:11;;;;;;;2.00;1.80;;;2.20;97.10;;;;;;5044738;28;20658;-80
2023/12/08 03:41:39;;;;;;;11.43;2.95;;;;;;;;;;5044363;28;20288;-80
2023/12/08 03:44:06;;;;;;;4.95;3.35;;;;;;;;;;5044501;28;21687;-80
2023/12/08 03:46:33;;;;;;;3.17;2.60;;;;;;;;;;5044715;28;20227;-79
2023/12/08 03:49:01;;;;;;;5.20;3.70;;;3.20;96.10;;;;;;5043250;28;20209;-80
2023/12/08 03:51:31;;;;;;;3.72;2.58;;;;;;;;;;5045175;28;20291;-80
2023/12/08 03:53:58;;;;;;;2.90;2.53;;;;;;;;;;5044337;28;20576;-80
2023/12/08 03:56:25;;;;;;;4.30;3.13;;;2.10;99.90;;;;;;5039805;28;20206;-79
2023/12/08 03:58:52;;;;;;;1.42;1.33;;;;;;;;;;5041503;28;20202;-80
2023/12/08 04:01:19;;;;;;;4.55;1.75;;;2.10;99.90;;;;;;5033631;28;20200;-80
2023/12/08 04:03:46;;;;;;;2.88;1.90;;;1.80;96.20;;;;;;5039442;28;20283;-81
2023/12/08 04:06:14;;;;;;;4.35;2.40;;;1.80;99.90;;;;;;5039782;28;20229;-78
2023/12/08 04:08:42;;;;;;;2.55;2.20;;;;;;;;;;5044791;28;20295;-80
2023/12/08 04:11:08;;;;;;;3.63;2.20;;;2.90;94.90;;;;;;5039904;28;20204;-79
2023/12/08 04:13:35;;;;;;;1.92;1.83;;;;;;;;;;5044743;28;20207;-78
2023/12/08 04:16:03;;;;;;;2.80;2.50;;;;;;;;;;5040175;28;20291;-79
2023/12/08 04:18:30;;;;;;;7.78;3.03;;;;;;;;;;5045674;28;20638;-78
2023/12/08 04:20:57;;;;;;;3.97;2.92;;;;;;;;;;5039727;28;20227;-80
2023/12/08 04:23:25;;;;;;;1.70;1.60;;;2.30;95.70;;;;;;5043554;28;20207;-80
2023/12/08 04:25:52;;;;;;;3.20;2.10;;;2.30;98.90;;;;;;5042051;28;20219;-80
2023/12/08 04:28:19;;;;;;;4.05;3.65;;;;;;;;;;5043376;28;20213;-80
2023/12/08 04:30:46;;;;;;;2.85;2.13;;;;;;;;;;5042282;28;20207;-80
2023/12/08 04:33:13;;;;;;;5.40;2.72;;;;;;;;;;5044876;28;20224;-80
2023/12/08 04:35:40;;;;;;;5.35;2.60;;;;;;;;;;5044550;28;20657;-80
2023/12/08 04:38:07;;;;;;;4.50;2.72;;;2.40;99.90;;;;;;5044328;28;20202;-80
2023/12/08 04:40:35;;;;;;;2.05;1.92;;;2.30;98.10;;;;;;5045092;28;20200;-80
2023/12/08 04:43:03;;;;;;;3.45;2.95;;;;;;;;;;5039049;28;20199;-80
2023/12/08 04:45:30;;;;;;;3.25;2.40;;;2.70;99.90;;;;;;5043064;28;20200;-80
2023/12/08 04:47:58;;;;;;;3.63;2.70;;;;;;;;;;5048008;28;20228;-80
2023/12/08 04:50:25;;;;;;;3.20;2.60;;;;;;;;;;5048320;28;20204;-80
2023/12/08 04:52:51;;;;;;;4.50;2.38;;;2.50;99.90;;;;;;5044913;28;20274;-80
2023/12/08 04:55:18;;;;;;;5.05;2.28;;;;;;;;;;5044288;28;20299;-80
2023/12/08 04:57:46;;;;;;;2.72;2.30;;;2.50;99.90;;;;;;5043054;28;20299;-81
2023/12/08 05:00:13;;;;;;;2.13;1.88;;;2.20;99.90;;;;;;5046829;28;20713;-80
2023/12/08 05:02:40;;;;;;;3.53;3.33;;;;;;;;;;5043766;28;20189;-80
2023/12/08 05:05:07;;;;;;;2.67;2.47;;;2.40;99.60;;;;;;5047581;28;20208;-80
2023/12/08 05:07:34;;;;;;;3.33;2.47;;;2.60;99.90;;;;;;5046140;28;20345;-81
2023/12/08 05:10:01;;;;;;;3.40;2.40;;;2.30;99.90;;;;;;5040266;28;20205;-80
2023/12/08 05:12:28;;;;;;;2.78;2.47;;;;;;;;;;5043591;28;20583;-80
2023/12/08 05:14:56;;;;;;;13.68;3.10;;;2.50;99.90;;;;;;5043736;28;20228;-80
2023/12/08 05:17:23;;;;;;;2.90;2.58;;;2.10;99.90;;;;;;5045952;28;20312;-81
2023/12/08 05:19:50;;;;;;;2.72;2.30;;;;;;;;;;5043888;28;20202;-81
2023/12/08 05:22:17;;;;;;;3.30;2.40;;;2.60;99.90;;;;;;5048629;28;20205;-80
2023/12/08 05:24:44;;;;;;;1.77;1.63;;;;;;;;;;5044779;28;20290;-81
2023/12/08 05:27:11;;;;;;;5.85;2.47;;;;;;;;;;5041879;28;20225;-81
2023/12/08 05:29:38;;;;;;;5.90;3.63;;;;;;;;;;5047835;28;20214;-81
2023/12/08 05:32:08;;;;;;;12.02;2.88;;;2.40;99.90;;;;;;5046809;28;20196;-81
2023/12/08 05:34:35;;;;;;;6.05;3.55;;;;;;;;;;5047247;28;20680;-81
2023/12/08 05:37:02;;;;;;;5.10;3.17;;;;;;;;;;5047192;28;20334;-81
2023/12/08 05:39:30;;;;;;;2.10;1.92;;;;;;;;;;5046614;28;20291;-81
2023/12/08 05:41:57;;;;;;;3.17;2.88;;;;;;;;;;5047307;28;20202;-81
2023/12/08 05:44:24;;;;;;;3.70;2.35;;;;;;;;;;5047565;28;20205;-81
2023/12/08 05:46:51;;;;;;;5.72;3.92;;;;;;;;;;5042131;28;20238;-81
2023/12/08 05:49:19;;;;;;;4.88;2.65;;;2.40;99.90;;;;;;5045651;28;20198;-82
2023/12/08 05:51:46;;;;;;;3.53;3.25;;;;;;;;;;5045736;28;20290;-82
2023/12/08 05:54:13;;;;;;;7.35;4.15;;;2.50;99.90;;;;;;5055663;28;20959;-81
2023/12/08 05:56:43;;;;;;;4.50;3.85;;;;;;;;;;5040760;28;20289;-80
2023/12/08 05:59:10;;;;;;;4.60;3.00;;;;;;;;;;5042604;28;20208;-80
2023/12/08 06:01:37;;;;;;;7.68;5.50;;;;;;;;;;5037282;28;21084;-82
2023/12/08 06:04:04;;;;;;;6.10;3.42;;;;;;;;;;5038389;28;20291;-85
2023/12/08 06:06:33;;;;;;;18.98;5.15;;;;;;;;;;5045693;28;20312;-86
2023/12/08 06:09:00;;;;;;;3.80;3.03;;;2.40;99.90;;;;;;5047781;28;20686;-84
2023/12/08 06:11:28;;;;;;;4.78;3.60;;;;;;;;;;5047003;28;20200;-85
2023/12/08 06:13:55;;;;;;;4.55;2.90;;;;;;;;;;5041302;28;20193;-85
2023/12/08 06:16:22;;;;;;;4.28;3.78;;;;;;;;;;5044372;28;20721;-85
2023/12/08 06:18:51;;;;;;;9.73;5.15;;;;;;;;;;5043131;28;20212;-86
2023/12/08 06:21:18;;;;;;;5.82;3.28;;;;;;;;;;5045248;28;20209;-85
2023/12/08 06:23:47;;;;;;;4.97;2.67;;;;;;;;;;5044935;28;20205;-87
2023/12/08 06:26:14;;;;;;;6.90;5.20;;;;;;;;;;5044516;28;20776;-87
2023/12/08 06:28:40;;;;;;;5.40;4.78;;;2.50;99.90;;;;;;5039042;28;20228;-88
2023/12/08 06:31:09;;;;;;;3.88;3.58;;;2.30;99.90;;;;;;5046109;28;20410;-87
2023/12/08 06:33:36;;;;;;;3.90;3.08;;;;;;;;;;5047478;28;20662;-86
2023/12/08 06:36:11;;;;;;;4.43;3.72;;;2.20;99.90;;;;;;5045966;28;20203;-87
2023/12/08 06:38:38;;;;;;;9.55;3.55;;;;;;;;;;5046134;28;20291;-88
2023/12/08 06:41:31;;;;;;;6.47;4.95;;;;;;;;;;5042043;28;20425;-87
2023/12/08 06:44:01;;;;;;;3.30;3.10;;;;;;;;;;5043277;28;20544;-81
2023/12/08 06:46:28;;;;;;;5.20;4.70;;;;;;;;;;5044911;28;20602;-89
2023/12/08 06:48:56;;;;;;;5.57;4.22;;;;;;;;;;5046861;28;20224;-82
2023/12/08 06:51:23;;;;;;;6.57;4.88;;;;;;;;;;5044228;28;20319;-77
2023/12/08 06:53:49;;;;;;;3.50;3.20;;;2.60;99.90;;;;;;5042253;28;20201;-81
2023/12/08 06:56:18;;;;;;;3.70;3.40;;;;;;;;;;5044936;28;20215;-79
2023/12/08 06:58:45;;;;;;;4.93;3.85;;;;;;;;;;5038200;28;20299;-84
2023/12/08 07:01:12;;;;;;;8.40;4.00;;;;;;;;;;5043730;28;20196;-83
2023/12/08 07:03:39;;;;;;;3.15;2.95;;;2.40;99.90;;;;;;5043232;28;20209;-85
2023/12/08 07:06:06;;;;;;;11.00;3.65;;;;;;;;;;5047012;28;20208;-81
2023/12/08 07:08:33;;;;;;;4.72;3.63;;;;;;;;;;5043212;28;20316;-80
2023/12/08 07:11:00;;;;;;;4.80;3.00;;;;;;;;;;5043355;28;20197;-79
2023/12/08 07:13:28;;;;;;;5.60;3.70;;;2.50;99.90;;;;;;5039169;28;20211;-79
2023/12/08 07:15:56;;;;;;;4.90;3.97;;;;;;;;;;5039084;28;20573;-80
2023/12/08 07:18:23;;;;;;;6.38;5.45;;;;;;;;;;5043805;28;20211;-78
2023/12/08 07:20:55;;;;;;;11.27;6.82;;;2.50;99.90;;;;;;5045572;28;20292;-79
2023/12/08 07:23:22;;;;;;;5.03;3.67;;;;;;;;;;5035832;28;20275;-80
2023/12/08 07:25:49;;;;;;;5.13;3.38;;;;;;;;;;5036868;28;20210;-80
2023/12/08 07:28:16;;;;;;;2.63;2.45;;;;;;;;;;5034923;28;20237;-80
2023/12/08 07:30:45;;;;;;;7.75;5.07;;;2.60;99.90;;;;;;5036188;28;20299;-81
2023/12/08 07:33:12;;;;;;;3.80;3.33;;;;;;;;;;5038747;28;20214;-80
2023/12/08 07:35:39;;;;;;;5.65;5.00;;;;;;;;;;5039411;28;20281;-80
2023/12/08 07:38:06;;;;;;;7.72;3.53;;;;;;;;;;5042166;28;20197;-80
2023/12/08 07:40:33;;;;;;;6.07;3.53;;;;;;;;;;5036064;28;20565;-81
2023/12/08 07:43:01;;;;;;;3.45;3.08;;;;;;;;;;5036444;28;20238;-82
2023/12/08 07:45:27;;;;;;;7.63;5.72;;;2.70;99.90;;;;;;5038995;28;20284;-81
2023/12/08 07:47:55;;;;;;;2.45;2.25;;;2.50;99.90;;;;;;5038447;28;20227;-82
2023/12/08 07:50:24;;;;;;;6.57;3.25;;;;;;;;;;5038201;28;20569;-82
2023/12/08 07:52:52;;;;;;;8.82;4.18;;;;;;;;;;5040151;28;20191;-81
2023/12/08 07:55:19;;;;;;;4.13;3.05;;;;;;;;;;5051071;28;20661;-81
2023/12/08 07:57:46;;;;;;;4.85;4.30;;;;;;;;;;5037175;28;20932;-81
2023/12/08 08:00:14;;;;;;;2.58;2.38;;;3.50;99.90;;;;;;5036285;28;20234;-81
2023/12/08 08:02:41;;;;;;;3.60;3.25;;;3.00;99.90;;;;;;5039464;28;20215;-81
2023/12/08 08:05:09;;;;;;;6.38;4.05;;;2.90;99.90;;;;;;5039960;28;20556;-81
2023/12/08 08:07:36;;;;;;;4.50;3.70;;;;;;;;;;5045554;28;20581;-81
2023/12/08 08:10:04;;;;;;;5.72;3.38;;;;;;;;;;5045200;28;20201;-81
2023/12/08 08:12:32;;;;;;;2.53;2.17;;;;;;;;;;5044966;28;20410;-81
2023/12/08 08:14:59;;;;;;;4.00;3.60;;;;;;;;;;5045370;28;20551;-80
2023/12/08 08:17:26;;;;;;;4.93;3.83;;;;;;;;;;5045774;28;20270;-81
2023/12/08 08:19:53;;;;;;;3.28;2.97;;;;;;;;;;5047012;28;20780;-81
2023/12/08 08:22:21;;;;;;;2.42;2.13;;;3.20;99.90;;;;;;5048146;28;20282;-81
2023/12/08 08:24:49;;;;;;;5.80;3.10;;;;;;;;;;5049562;28;20197;-81
2023/12/08 08:27:16;;;;;;;6.35;3.30;;;;;;;;;;5046860;28;20315;-80
2023/12/08 08:29:43;;;;;;;3.17;2.65;;;3.10;99.90;;;;;;5048963;28;20289;-81
2023/12/08 08:32:10;;;;;;;3.22;2.28;;;;;;;;;;5049333;28;20212;-80
2023/12/08 08:34:37;;;;;;;6.22;3.40;;;;;;;;;;5045987;28;20539;-82
2023/12/08 08:37:04;;;;;;;2.72;2.28;;;3.30;99.90;;;;;;5049682;28;20276;-81
2023/12/08 08:39:32;;;;;;;2.97;2.67;;;3.50;99.90;;;;;;5048313;28;20687;-81
2023/12/08 08:41:59;;;;;;;4.68;2.65;;;;;;;;;;5049428;28;20213;-81
2023/12/08 08:44:25;;;;;;;2.75;2.30;;;;;;;;;;5049043;28;20305;-80
2023/12/08 08:46:52;;;;;;;3.72;2.47;;;;;;;;;;5043499;28;20241;-80
2023/12/08 08:49:19;;;;;;;33.28;2.88;;;;;;;;;;5038260;28;20231;-82
2023/12/08 08:51:47;;;;;;;4.85;2.70;;;;;;;;;;5044397;28;20629;-81
2023/12/08 08:54:14;;;;;;;2.92;2.38;;;;;;;;;;5048647;28;20299;-81
2023/12/08 08:56:43;;;;;;;5.00;3.17;;;3.80;99.90;;;;;;5043868;28;20268;-82
2023/12/08 08:59:10;;;;;;;4.15;2.15;;;;;;;;;;5034875;28;20209;-79
2023/12/08 09:01:38;;;;;;;2.20;2.00;;;;;;;;;;5039089;28;20718;-83
2023/12/08 09:04:05;;;;;;;3.17;2.00;;;;;;;;;;5038740;28;20279;-79
2023/12/08 09:06:32;;;;;;;3.60;2.20;;;6.80;99.90;;;;;;5034646;28;20342;-77
2023/12/08 09:08:59;;;;;;;3.08;2.25;;;;;;;;;;5029443;28;20239;-78
2023/12/08 09:11:27;;;;;;;7.72;2.88;;;;;;;;;;5047859;28;20209;-78
2023/12/08 09:13:55;;;;;;;3.72;2.83;;;4.00;99.90;;;;;;5041891;28;20298;-79
2023/12/08 09:16:22;;;;;;;2.55;2.38;;;;;;;;;;5039872;28;20660;-79
2023/12/08 09:18:51;;;;;;;3.00;2.80;;;;;;;;;;5045263;28;20584;-79
2023/12/08 09:21:18;;;;;;;2.30;2.10;;;;;;;;;;5037778;28;20297;-79
2023/12/08 09:23:47;;;;;;;2.25;1.88;;;;;;;;;;5039363;28;20728;-77
2023/12/08 09:26:15;;;;;;;3.38;3.05;;;;;;;;;;5040744;28;20243;-77
2023/12/08 09:28:43;;;;;;;3.60;3.13;;;;;;;;;;5038568;28;20226;-77
2023/12/08 09:31:11;;;;;;;5.10;2.80;;;4.40;99.90;;;;;;5035455;28;20610;-77
2023/12/08 09:33:41;;;;;;;1.77;1.67;;;;;;;;;;5035267;28;20194;-77
2023/12/08 09:36:09;;;;;;;2.53;2.17;;;7.20;99.90;;;;;;5036080;28;20665;-78
2023/12/08 09:38:37;;;;;;;6.00;2.95;;;;;;;;;;5044827;28;20246;-78
2023/12/08 09:41:05;;;;;;;3.28;1.85;;;;;;;;;;5037351;28;20585;-79
2023/12/08 09:43:40;;;;;;;2.47;2.28;;;4.50;99.90;;;;;;5037642;28;20613;-78
2023/12/08 09:46:11;;;;;;;4.57;2.50;;;4.30;99.90;;;;;;5033315;28;20199;-77
2023/12/08 09:48:39;;;;;;;2.35;2.15;;;;;;;;;;5039940;28;20250;-79
2023/12/08 09:51:09;;;;;;;3.35;1.65;;;4.60;99.90;;;;;;5039299;28;20217;-79
2023/12/08 09:53:38;;;;;;;2.22;2.03;;;4.40;99.90;;;;;;5044978;28;20660;-80
2023/12/08 09:56:07;;;;;;;2.78;2.45;;;;;;;;;;5039427;28;20207;-80
2023/12/08 09:58:36;;;;;;;2.47;2.22;;;4.70;99.90;;;;;;5045042;28;20430;-79
2023/12/08 10:01:06;;;;;;;2.30;1.92;;;4.70;99.90;;;;;;5034783;28;20204;-79
2023/12/08 10:03:36;;;;;;;3.60;2.22;;;;;;;;;;5049162;28;20254;-79
2023/12/08 10:06:03;;;;;;;4.15;3.25;;;;;;;;;;5035785;28;20286;-79
2023/12/08 10:08:30;;;;;;;3.58;2.85;;;;;;;;;;5033741;28;20447;-79
2023/12/08 10:10:57;;;;;;;3.85;3.45;;;;;;;;;;5043388;28;20200;-79
2023/12/08 10:13:25;;;;;;;3.92;2.65;;;;;;;;;;5046396;28;20292;-79
2023/12/08 10:15:53;;;;;;;4.75;3.53;;;;;;;;;;5033140;28;20537;-79
2023/12/08 10:18:24;;;;;;;2.70;1.75;;;;;;;;;;5044825;28;20291;-80
2023/12/08 10:20:53;;;;;;;2.17;1.70;;;4.90;99.90;;;;;;5038682;28;20219;-79
2023/12/08 10:23:21;;;;;;;1.75;1.65;;;;;;;;;;5041856;28;20220;-80
2023/12/08 10:25:48;;;;;;;1.75;1.20;;;;;;;;;;5036042;28;20205;-80
2023/12/08 10:28:15;;;;;;;1.88;1.35;;;;;;;;;;5035434;28;20242;-78
2023/12/08 10:30:46;;;;;;;1.77;1.63;;;5.00;99.90;;;;;;5042335;28;20203;-78
2023/12/08 10:33:19;;;;;;;7.50;3.28;;;4.90;99.90;;;;;;5039807;28;20192;-79
2023/12/08 10:35:46;;;;;;;3.10;2.38;;;;;;;;;;5036675;28;20211;-79
2023/12/08 10:38:15;;;;;;;3.58;2.70;;;4.90;99.90;;;;;;5040166;28;20206;-78
2023/12/08 10:40:47;;;;;;;2.67;2.00;;;5.10;99.90;;;;;;5040753;28;20284;-78
2023/12/08 10:43:20;;;;;;;3.17;2.40;;;;;;;;;;5042584;28;20215;-78
2023/12/08 10:45:47;;;;;;;2.08;1.98;;;;;;;;;;5034992;28;20204;-79
2023/12/08 10:48:14;;;;;;;3.20;2.90;;;;;;;;;;5040867;28;20591;-77
2023/12/08 10:50:42;;;;;;;2.42;1.83;;;;;;;;;;5038015;28;20736;-77
2023/12/08 10:53:10;;;;;;;5.93;2.75;;;5.20;99.90;;;;;;5043268;28;20820;-78
2023/12/08 10:55:40;;;;;;;8.88;4.25;;;5.20;99.90;;;;;;5042444;28;20203;-77
2023/12/08 10:58:11;;;;;;;6.28;4.20;;;5.10;99.90;;;;;;5038071;28;20842;-77
2023/12/08 11:00:39;;;;;;;8.60;3.28;;;5.20;99.90;;;;;;5041122;28;20263;-77
2023/12/08 11:03:10;;;;;;;5.00;3.92;;;5.30;99.90;;;;;;5045935;28;20193;-77
2023/12/08 11:05:39;;;;;;;3.10;2.63;;;5.30;99.90;;;;;;5046467;28;20191;-77
2023/12/08 11:08:12;;;;;;;4.07;3.78;;;5.40;99.90;;;;;;5046766;28;20223;-78
2023/12/08 11:10:45;;;;;;;4.50;3.13;;;5.40;99.90;;;;;;5043065;28;20363;-78
2023/12/08 11:13:18;;;;;;;4.60;3.53;;;5.50;99.90;;;;;;5040299;28;20196;-77
2023/12/08 11:15:48;;;;;;;4.05;2.53;;;;;;;;;;5042245;28;20202;-80
2023/12/08 11:18:22;;;;;;;4.45;2.55;;;5.60;99.90;;;;;;5030670;28;20204;-80
2023/12/08 11:20:50;;;;;;;3.05;2.60;;;;;;;;;;5040785;28;20230;-79
2023/12/08 11:23:18;;;;;;;4.72;2.72;;;;;;;;;;5038641;28;20200;-78
2023/12/08 11:25:56;;;;;;;2.75;2.25;;;5.90;99.90;;;;;;5038576;28;20246;-78
2023/12/08 11:28:30;;;;;;;4.07;2.67;;;5.80;99.90;;;;;;5038099;28;20216;-79
2023/12/08 11:30:59;;;;;;;5.28;4.22;;;;;;;;;;5038804;28;20200;-76
2023/12/08 11:33:31;;;;;;;2.97;2.53;;;;;;;;;;5040970;28;20642;-79
2023/12/08 11:36:07;;;;;;;3.22;2.65;;;;;;;;;;5037986;28;20683;-78
2023/12/08 11:38:34;;;;;;;16.02;3.03;;;;;;;;;;5039875;28;20196;-78
2023/12/08 11:41:03;;;;;;;4.68;3.58;;;6.10;99.90;;;;;;5041056;28;20374;-78
2023/12/08 11:43:30;;;;;;;4.47;3.92;;;;;;;;;;5045053;28;20739;-79
2023/12/08 11:45:57;;;;;;;4.53;3.85;;;;;;;;;;5036636;28;20291;-80
2023/12/08 11:48:24;;;;;;;4.07;3.28;;;;;;;;;;5034881;28;20305;-82
2023/12/08 11:50:51;;;;;;;10.23;5.22;;;;;;;;;;5032320;28;20209;-79
2023/12/08 11:53:18;;;;;;;4.97;4.53;;;;;;;;;;5039932;28;20210;-81
2023/12/08 11:55:45;;;;;;;3.15;2.33;;;;;;;;;;5038183;28;20199;-80
2023/12/08 11:58:17;;;;;;;4.87;3.27;;;;;;;;;;5043295;28;20322;-83
2023/12/08 12:00:48;;;;;;;6.65;4.43;;;6.30;99.90;;;;;;5040068;28;20676;-80
2023/12/08 12:03:16;;;;;;;3.70;2.50;;;;;;;;;;5031322;28;20295;-79
2023/12/08 12:05:43;;;;;;;11.35;3.30;;;;;;;;;;5027791;28;20208;-81
2023/12/08 12:08:14;;;;;;;6.47;3.50;;;;;;;;;;5033442;28;20213;-81
2023/12/08 12:10:41;;;;;;;4.13;3.10;;;;;;;;;;5038362;28;20745;-83
2023/12/08 12:13:11;;;;;;;6.18;3.95;;;6.30;99.90;;;;;;5045891;28;20421;-81
2023/12/08 12:15:41;;;;;;;4.23;3.37;;;6.20;99.90;;;;;;5044364;28;20739;-79
2023/12/08 12:18:08;;;;;;;2.78;2.58;;;;;;;;;;5043342;28;20668;-81
2023/12/08 12:20:39;;;;;;;2.78;2.53;;;6.50;99.90;;;;;;5045217;28;20719;-79
2023/12/08 12:23:06;;;;;;;2.30;1.88;;;;;;;;;;5045430;28;20200;-80
2023/12/08 12:25:34;;;;;;;2.35;2.15;;;;;;;;;;5035548;28;20734;-80
2023/12/08 12:28:01;;;;;;;3.08;2.80;;;;;;;;;;5037766;28;20208;-80
2023/12/08 12:30:28;;;;;;;2.07;1.87;;;;;;;;;;5042540;28;20706;-81
2023/12/08 12:32:57;;;;;;;3.47;2.53;;;;;;;;;;5041863;28;20640;-83
2023/12/08 12:35:24;;;;;;;2.07;1.97;;;;;;;;;;5039841;28;20614;-77
2023/12/08 12:37:52;;;;;;;5.53;3.20;;;;;;;;;;5045374;28;20728;-77
2023/12/08 12:40:20;;;;;;;1.70;1.37;;;6.60;99.90;;;;;;5045527;28;20640;-78
2023/12/08 12:42:48;;;;;;;1.40;1.00;;;6.60;99.90;;;;;;5043387;28;21064;-77
2023/12/08 12:45:27;;;;;;;1.27;1.05;;;6.40;99.90;;;;;;5036945;28;20635;-77
2023/12/08 12:48:03;;;;;;;3.72;2.72;;;6.60;99.90;;;;;;5039632;28;20214;-77
2023/12/08 12:50:30;;;;;;;3.85;2.35;;;;;;;;;;5035263;28;20270;-77
2023/12/08 12:53:04;;;;;;;2.20;2.00;;;6.70;99.90;;;;;;5039936;28;20283;-76
2023/12/08 12:55:31;;;;;;;2.80;2.17;;;;;;;;;;5032622;28;20634;-82
2023/12/08 12:57:58;;;;;;;1.70;1.60;;;;;;;;;;5026931;28;20282;-85
2023/12/08 13:00:34;;;;;;;3.30;2.50;;;;;;;;;;5029208;28;20613;-86
2023/12/08 13:03:09;;;;;;;2.20;1.47;;;;;;;;;;5046268;28;20678;-78
2023/12/08 13:05:36;;;;;;;2.47;2.23;;;;;;;;;;5053730;28;20621;-86
2023/12/08 13:08:03;;;;;;;3.30;2.47;;;;;;;;;;5049179;28;20633;-86
2023/12/08 13:10:31;;;;;;;4.97;2.45;;;;;;;;;;5041857;28;20634;-87
2023/12/08 13:12:59;;;;;;;2.63;2.20;;;;;;;;;;5036400;28;20565;-85
2023/12/08 13:15:26;;;;;;;1.80;1.57;;;;;;;;;;5038717;28;20621;-88
2023/12/08 13:17:56;;;;;;;1.63;1.30;;;;;;;;;;5037221;28;20623;-86
2023/12/08 13:20:27;;;;;;;1.75;1.08;;;;;;;;;;5040361;28;21329;-85
2023/12/08 13:22:54;;;;;;;2.40;2.20;;;;;;;;;;5035515;28;20266;-86
2023/12/08 13:25:21;;;;;;;2.40;1.92;;;;;;;;;;5040996;28;20201;-86
2023/12/08 13:27:48;;;;;;;2.00;1.60;;;;;;;;;;5037454;28;20205;-87
2023/12/08 13:30:15;;;;;;;1.40;1.30;;;;;;;;;;5037258;28;20709;-88
2023/12/08 13:32:43;;;;;;;2.97;1.92;;;;;;;;;;5042024;28;20244;-89
2023/12/08 13:35:16;;;;;;;1.20;1.10;;;;;;;;;;5037768;28;20196;-86
2023/12/08 13:37:44;;;;;;;1.13;0.77;;;;;;;;;;5038708;28;20792;-86
2023/12/08 13:40:12;;;;;;;1.60;1.47;;;;;;;;;;5035532;28;20605;-87
2023/12/08 13:42:41;;;;;;;3.77;2.30;;;;;;;;;;5040210;28;20651;-84
2023/12/08 13:45:08;;;;;;;1.65;1.55;;;;;;;;;;5047114;28;20629;-85
2023/12/08 13:47:35;;;;;;;2.47;2.00;;;6.50;99.90;;;;;;5039947;28;20291;-85
2023/12/08 13:50:02;;;;;;;2.97;2.37;;;6.70;99.90;;;;;;5038867;28;20701;-85
2023/12/08 13:52:30;;;;;;;2.25;2.05;;;;;;;;;;5049591;28;20710;-82
2023/12/08 13:54:58;;;;;;;3.40;1.88;;;6.40;99.90;;;;;;5048215;28;20262;-84
2023/12/08 13:57:24;;;;;;;2.47;2.28;;;6.50;99.90;;;;;;5042961;28;20203;-83
2023/12/08 13:59:52;;;;;;;1.37;1.30;;;;;;;;;;5052247;28;20755;-82
2023/12/08 14:02:19;;;;;;;1.30;1.20;;;;;;;;;;5054129;28;20631;-83
2023/12/08 14:04:46;;;;;;;2.17;1.57;;;;;;;;;;5042410;28;20200;-79